Latest Coastal Weather Observations for Lady Elliot Island

IDQ60701

Issued at 7:22 pm EST Saturday 13 August 2022 (issued every 10 minutes, with the page automatically refreshed every 10 minutes)

About coastal observations | Map of coastal stations | Coastal observations for QLD | Marine services | Other Formats
Station Details ID: 039059 Name: LADY ELLIOT ISLAND Lat: -24.11 Lon: 152.72 Height: 3.6 m
Data from the previous 72 hours. | See also: Recent months at Lady Elliot Island
Date/Time
EST
Wind Sea
Height
m
Swell Vis
km
Cloud Weather Temp
°C
Press
MSL
hPa
Rain since
9am
mm
Dir  Spd
kts
Gust
kts
Height
m
Period
s
Dir
13/07:00pm WSW 4 6 - - - - - - - 20.2 1016.1 0.2
13/06:30pm W 4 6 - - - - - - - 20.2 1015.7 0.2
13/06:00pm WNW 5 7 - - - - - - - 20.5 1015.5 0.2
13/05:30pm WNW 5 6 - - - - - - - 20.5 1015.3 0.2
13/05:00pm NW 5 7 - - - - - - - 20.8 1015.1 0.2
13/04:30pm WNW 7 9 - - - - - - - 21.2 1015.0 0.2
13/04:00pm NW 5 8 - - - - - - - 21.9 1014.6 0.2
13/03:30pm NNW 6 9 - - - - - - - 22.1 1014.6 0.2
13/03:00pm NNW 6 8 - - - - - - - 21.8 1014.8 0.2
13/02:30pm NW 5 7 - - - - - - - 21.9 1015.0 0.2
13/02:00pm NNW 6 7 - - - - - - - 22.5 1015.3 0.2
13/01:30pm NNW 5 6 - - - - - - - 22.4 1015.6 0.2
13/01:00pm NNW 6 7 - - - - - - - 22.7 1015.8 0.2
13/12:30pm NNW 5 7 - - - - - - - 22.6 1016.2 0.2
13/12:00pm NNW 5 7 - - - - - - Recent precip. 21.8 1016.7 0.2
13/11:30am NNW 5 6 - - - - - - - 22.4 1017.0 0.2
13/11:00am NNW 5 6 - - - - - - - 22.6 1017.4 0.0
13/10:30am N 5 8 - - - - - - - 21.8 1017.7 0.0
13/10:00am N 5 7 - - - - - - - 21.7 1017.7 0.0
13/09:30am N 5 8 - - - - - - - 21.1 1017.8 0.0
13/09:00am N 5 7 - - - - - - - 20.8 1017.9 2.0
13/08:30am N 9 11 - - - - - - - 20.5 1018.0 2.0
13/08:00am N 6 9 - - - - - - - 20.1 1017.8 2.0
13/07:30am N 6 8 - - - - - - - 19.7 1017.5 2.0
13/07:00am NNW 5 7 - - - - - - - 19.0 1017.2 2.0
13/06:30am NW 4 8 - - - - - - - 19.1 1017.5 1.2
13/06:00am NNW 6 8 - - - - - - - 19.5 1017.0 1.0
13/05:30am NW 5 8 - - - - - - - 20.4 1016.8 1.0
13/05:00am N 5 7 - - - - - - - 20.4 1016.6 1.0
13/04:30am NNE 3 7 - - - - - - - 20.2 1016.4 1.0
13/04:00am N 4 6 - - - - - - - 20.3 1016.4 1.0
13/03:30am N 5 7 - - - - - - - 20.4 1016.8 1.0
13/03:00am N 5 8 - - - - - - - 20.4 1016.9 1.0
13/02:30am NNE 5 11 - - - - - - - 20.3 1017.0 1.0
13/02:00am NNE 6 10 - - - - - - - 20.2 1017.4 1.0
13/01:30am NE 4 7 - - - - - - - 19.3 1017.5 1.0
13/01:00am NNE 7 11 - - - - - - - 19.7 1018.0 1.0
13/12:30am NE 5 8 - - - - - - - 19.5 1018.4 0.8
13/12:00am NE 5 8 - - - - - - - 20.5 1019.0 0.4
 
Date/Time
EST
Wind Sea
Height
m
Swell Vis
km
Cloud Weather Temp
°C
Press
MSL
hPa
Rain since
9am
mm
Dir  Spd
kts
Gust
kts
Height
m
Period
s
Dir
12/11:30pm NNE 5 10 - - - - - - - 20.4 1019.1 0.4
12/11:00pm NE 4 7 - - - - - - - 20.4 1019.4 0.4
12/10:30pm NE 5 8 - - - - - - - 20.3 1019.6 0.4
12/10:00pm NE 6 9 - - - - - - - 20.1 1019.5 0.4
12/09:30pm ENE 8 13 - - - - - - - 20.4 1019.6 0.4
12/09:00pm ENE 9 14 - - - - - - - 20.2 1019.2 0.4
12/08:30pm ENE 7 11 - - - - - - - 20.5 1019.4 0.4
12/08:00pm NE 6 10 - - - - - - - 20.4 1019.5 0.4
12/07:30pm ENE 6 9 - - - - - - - 20.2 1019.3 0.4
12/07:00pm NNE 5 9 - - - - - - - 20.4 1019.1 0.4
12/06:30pm NE 5 9 - - - - - - - 20.3 1019.0 0.4
12/06:00pm ENE 6 9 - - - - - - - 20.2 1018.8 0.4
12/05:30pm NE 5 8 - - - - - - - 20.2 1018.6 0.4
12/05:00pm ENE 5 8 - - - - - - - 20.4 1018.1 0.4
12/04:30pm ENE 6 9 - - - - - - - 21.2 1018.0 0.4
12/04:00pm ENE 7 9 - - - - - - - 21.2 1018.0 0.4
12/03:30pm E 8 11 - - - - - - - 21.1 1017.8 0.4
12/03:00pm E 9 11 - - - - - - - 21.6 1017.9 0.2
12/02:30pm E 9 13 - - - - - - - 21.4 1018.2 0.2
12/02:00pm ENE 7 12 - - - - - - - 21.5 1018.7 0.2
12/01:30pm NNE 4 6 - - - - - - - 20.0 1019.2 0.2
12/01:00pm N 7 11 - - - - - - - 20.5 1019.6 0.0
12/12:30pm ENE 11 15 - - - - - - - 22.0 1019.8 0.0
12/12:00pm ENE 8 12 - - - - - - - 23.0 1020.3 0.0
12/11:30am E 7 11 - - - - - - - 21.9 1020.8 0.0
12/11:00am E 9 11 - - - - - - - 22.4 1021.1 0.0
12/10:30am E 9 11 - - - - - - - 21.3 1021.5 0.0
12/10:00am E 9 14 - - - - - - - 21.2 1021.5 0.0
12/09:30am E 9 12 - - - - - - - 21.9 1021.6 0.0
12/09:00am NE 5 12 - - - - - - - 20.0 1021.6 0.6
12/08:30am ENE 8 12 - - - - - - - 20.5 1021.2 0.6
12/08:00am ENE 9 13 - - - - - - - 21.0 1020.9 0.6
12/07:30am ENE 9 12 - - - - - - - 20.4 1020.7 0.6
12/07:00am ENE 8 12 - - - - - - - 19.7 1020.7 0.6
12/06:30am ENE 9 13 - - - - - - - 19.4 1020.4 0.6
12/06:00am ENE 7 11 - - - - - - - 19.2 1020.3 0.6
12/05:30am E 8 13 - - - - - - - 19.2 1019.9 0.6
12/05:00am E 9 12 - - - - - - - 19.1 1019.9 0.6
12/04:30am ESE 10 11 - - - - - - - 18.8 1020.0 0.6
12/04:00am ESE 9 11 - - - - - - - 18.5 1020.2 0.6
12/03:30am ESE 8 10 - - - - - - - 18.3 1020.6 0.6
12/03:00am ESE 10 13 - - - - - - - 18.7 1020.5 0.6
12/02:30am ENE 9 12 - - - - - - - 19.1 1020.7 0.6
12/02:00am ENE 9 11 - - - - - - - 19.2 1020.8 0.6
12/01:30am ENE 10 15 - - - - - - - 19.3 1021.1 0.6
12/01:00am E 10 14 - - - - - - - 19.1 1021.4 0.6
12/12:30am SE 7 9 - - - - - - - 18.1 1022.1 0.6
12/12:00am SE 10 13 - - - - - - - 17.9 1022.5 0.6
 
Date/Time
EST
Wind Sea
Height
m
Swell Vis
km
Cloud Weather Temp
°C
Press
MSL
hPa
Rain since
9am
mm
Dir  Spd
kts
Gust
kts
Height
m
Period
s
Dir
11/11:30pm SE 10 12 - - - - - - - 18.1 1022.3 0.6
11/11:00pm ESE 10 13 - - - - - - - 18.5 1022.7 0.6
11/10:30pm ESE 13 16 - - - - - - - 18.5 1022.7 0.6
11/10:00pm ESE 11 14 - - - - - - - 18.6 1022.6 0.6
11/09:30pm ESE 10 12 - - - - - - - 18.4 1022.6 0.6
11/09:00pm ESE 15 19 - - - - - - - 17.6 1022.8 0.6
11/08:30pm ESE 13 19 - - - - - - - 18.6 1022.9 0.6
11/08:00pm E 14 19 - - - - - - - 18.5 1022.7 0.6
11/07:30pm E 12 18 - - - - - - - 18.7 1022.4 0.2
11/07:00pm ESE 14 17 - - - - - - - 19.2 1022.0 0.2
11/06:30pm ESE 15 19 - - - - - - - 19.0 1021.4 0.2
11/06:00pm ESE 14 20 - - - - - - Recent precip. 18.8 1021.2 0.2
11/05:30pm SE 13 16 - - - - - - - 19.1 1020.9 0.0
11/05:00pm ESE 13 17 - - - - - - - 19.4 1020.8 0.0
11/04:30pm SE 12 16 - - - - - - - 19.9 1020.9 0.0
11/04:00pm SSE 11 15 - - - - - - - 20.0 1021.0 0.0
11/03:30pm SSE 11 14 - - - - - - - 20.8 1021.1 0.0
11/03:00pm SSE 11 16 - - - - - - - 20.8 1021.2 0.0
11/02:30pm SSE 12 17 - - - - - - - 21.0 1021.3 0.0
11/02:00pm SE 13 18 - - - - - - - 21.3 1021.4 0.0
11/01:30pm SE 13 18 - - - - - - - 22.1 1021.8 0.0
11/01:00pm SE 13 17 - - - - - - - 20.7 1022.1 0.0
11/12:30pm S 11 16 - - - - - - - 19.7 1022.4 0.0
11/12:00pm SSE 13 18 - - - - - - - 21.6 1022.4 0.0
11/11:30am SE 12 16 - - - - - - - 21.4 1022.8 0.0
11/11:00am SE 15 19 - - - - - - - 21.2 1023.0 0.0
11/10:30am SE 13 16 - - - - - - - 21.7 1023.2 0.0
11/10:00am SE 14 18 - - - - - - - 21.2 1023.5 0.0
11/09:30am ESE 14 19 - - - - - - - 20.6 1023.2 0.0
11/09:00am ESE 15 19 - - - - - - - 20.6 1022.9 1.6
11/08:30am ESE 16 20 - - - - - - - 19.2 1022.5 1.6
11/08:00am ESE 17 21 - - - - - - - 19.4 1022.5 1.6
11/07:30am ESE 15 19 - - - - - - - 19.4 1022.4 1.6
11/07:00am ESE 15 19 - - - - - - - 18.8 1022.5 1.6
11/06:30am ESE 15 18 - - - - - - - 18.9 1022.4 1.6
11/06:00am ESE 15 18 - - - - - - - 18.7 1022.1 1.6
11/05:30am ESE 15 19 - - - - - - - 18.6 1021.7 1.6
11/05:00am ESE 13 19 - - - - - - - 18.5 1021.3 1.6
11/04:30am E 10 14 - - - - - - - 18.2 1021.5 1.6
11/04:00am ESE 16 22 - - - - - - - 18.3 1021.6 1.6
11/03:30am ESE 15 18 - - - - - - - 18.3 1021.4 1.6
11/03:00am ESE 14 19 - - - - - - - 18.3 1021.8 1.6
11/02:30am ESE 15 18 - - - - - - - 18.3 1021.8 1.6
11/02:00am ESE 16 20 - - - - - - - 18.2 1021.7 1.6
11/01:30am ESE 12 18 - - - - - - - 18.0 1022.1 1.6
11/01:00am SE 16 23 - - - - - - - 18.0 1022.6 1.4
11/12:30am ESE 14 18 - - - - - - - 18.3 1022.8 1.4
11/12:00am SE 15 19 - - - - - - - 18.0 1022.8 1.4
 
Date/Time
EST
Wind Sea
Height
m
Swell Vis
km
Cloud Weather Temp
°C
Press
MSL
hPa
Rain since
9am
mm
Dir  Spd
kts
Gust
kts
Height
m
Period
s
Dir
10/11:30pm SSE 12 18 - - - - - - - 17.5 1022.9 1.4
10/11:00pm SE 18 22 - - - - - - - 18.2 1023.0 1.4
10/10:30pm SE 15 20 - - - - - - - 17.6 1023.5 1.4
10/10:00pm ESE 17 27 - - - - - - - 16.9 1023.7 1.2
10/09:56pm ESE 15 27 - - - - - - - 18.3 1023.6 0.0
10/09:30pm SSE 12 19 - - - - - - - 18.5 1023.7 0.0
10/09:00pm SE 18 24 - - - - - - - 18.1 1023.6 0.0
10/08:30pm SSE 14 18 - - - - - - - 18.6 1023.3 0.0
10/08:00pm SSE 12 18 - - - - - - - 18.4 1023.1 0.0
10/07:30pm SE 15 20 - - - - - - - 18.5 1022.9 0.0

Other formats

Comma delimited format used in spreadsheet applications
http://www.bom.gov.au/fwo/IDQ60701/IDQ60701.94388.axf

JavaScript Object Notation format (JSON) in row-major order
http://www.bom.gov.au/fwo/IDQ60701/IDQ60701.94388.json

Data quality

Most of these data are generated automatically and are frequently updated. Quality checks on data are not normally performed. It is possible for incorrect values to appear. Refer to information at About Latest Weather Observations and please check the disclaimer before using these data.